createdAt,value
2019-05-14T00:02:02.796Z,99657.52
2019-05-14T00:06:07.969Z,99661.02
2019-05-14T00:10:13.389Z,99658.41
2019-05-14T00:14:18.268Z,99653.56
2019-05-14T00:18:23.156Z,99654.81
2019-05-14T00:22:28.047Z,99641.88
2019-05-14T00:26:32.937Z,99644.04
2019-05-14T00:30:37.827Z,99646.64
2019-05-14T00:34:42.722Z,99641.90
2019-05-14T00:38:47.594Z,99641.08
2019-05-14T00:42:53.285Z,99638.90
2019-05-14T00:46:59.417Z,99635.42
2019-05-14T00:51:04.312Z,99627.99
2019-05-14T00:55:11.717Z,99627.10
2019-05-14T00:59:16.429Z,99624.06
2019-05-14T01:03:21.862Z,99623.65
2019-05-14T01:07:26.838Z,99618.02
2019-05-14T01:11:31.726Z,99614.13
2019-05-14T01:15:36.608Z,99614.13
2019-05-14T01:19:42.547Z,99611.52
2019-05-14T01:23:47.673Z,99616.24
2019-05-14T01:27:52.564Z,99614.06
2019-05-14T01:31:57.451Z,99614.95
2019-05-14T01:36:02.370Z,99615.42
2019-05-14T01:40:08.055Z,99617.16
2019-05-14T01:44:12.945Z,99619.78
2019-05-14T01:48:17.837Z,99619.37
2019-05-14T01:52:22.723Z,99619.84
2019-05-14T01:56:27.620Z,99619.39
2019-05-14T02:00:32.561Z,99621.52
2019-05-14T02:04:37.454Z,99618.09
2019-05-14T02:08:42.340Z,99614.63
2019-05-14T02:12:47.240Z,99613.30
2019-05-14T02:16:52.106Z,99609.41
2019-05-14T02:20:56.995Z,99602.06
2019-05-14T02:25:02.389Z,99613.75
2019-05-14T02:29:08.321Z,99601.61
2019-05-14T02:33:13.212Z,99605.05
2019-05-14T02:37:19.423Z,99609.38
2019-05-14T02:41:24.623Z,99603.31
2019-05-14T02:45:30.347Z,99603.28
2019-05-14T02:49:39.359Z,99599.80
2019-05-14T02:53:43.099Z,99588.94
2019-05-14T02:57:50.120Z,99578.52
2019-05-14T03:01:54.568Z,99578.87
2019-05-14T03:06:00.524Z,99580.13
2019-05-14T03:10:09.629Z,99570.62
2019-05-14T03:14:13.317Z,99571.52
2019-05-14T03:18:19.912Z,99574.50
2019-05-14T03:22:38.848Z,99574.89
2019-05-14T03:26:31.553Z,99566.63
2019-05-14T03:30:41.728Z,99566.63
2019-05-14T03:34:44.098Z,99563.12
2019-05-14T03:38:50.263Z,99570.45
2019-05-14T03:42:55.485Z,99557.91
2019-05-14T03:47:04.999Z,99560.92
2019-05-14T03:51:09.031Z,99551.91
2019-05-14T03:55:13.673Z,99545.42
2019-05-14T03:59:19.977Z,99543.69
2019-05-14T04:03:29.201Z,99545.77
2019-05-14T04:07:34.356Z,99551.89
2019-05-14T04:11:42.456Z,99548.92
2019-05-14T04:15:49.714Z,99551.13
2019-05-14T04:19:59.729Z,99555.12
2019-05-14T04:24:04.550Z,99559.27
2019-05-14T04:28:12.486Z,99547.73
2019-05-14T04:32:20.382Z,99553.32
2019-05-14T04:36:25.506Z,99546.52
2019-05-14T04:40:30.407Z,99542.63
2019-05-14T04:44:35.287Z,99545.04
2019-05-14T04:48:43.428Z,99546.98
2019-05-14T04:52:49.427Z,99541.17
2019-05-14T04:56:53.375Z,99536.08
2019-05-14T05:01:00.668Z,99538.52
2019-05-14T05:05:08.828Z,99532.27
2019-05-14T05:09:12.593Z,99527.84
2019-05-14T05:13:18.433Z,99530.66
2019-05-14T05:17:40.176Z,99520.58
2019-05-14T05:21:30.185Z,99518.67
2019-05-14T05:25:35.060Z,99510.46
2019-05-14T05:29:39.949Z,99518.43
2019-05-14T05:33:44.840Z,99519.40
2019-05-14T05:37:49.736Z,99523.06
2019-05-14T05:41:54.634Z,99508.63
2019-05-14T05:45:59.528Z,99525.72
2019-05-14T05:50:08.719Z,99527.44
2019-05-14T05:54:13.310Z,99524.81
2019-05-14T05:58:19.695Z,99518.30
2019-05-14T06:02:24.673Z,99512.19
2019-05-14T06:06:29.578Z,99509.35
2019-05-14T06:10:34.469Z,99505.28
2019-05-14T06:14:39.363Z,99493.23
2019-05-14T06:18:44.272Z,99501.13
2019-05-14T06:22:49.171Z,99506.91
2019-05-14T06:26:54.066Z,99507.17
2019-05-14T06:30:59.203Z,99499.58
2019-05-14T06:35:08.806Z,99509.19
2019-05-14T06:39:14.966Z,99506.47
2019-05-14T06:43:19.859Z,99514.41
2019-05-14T06:47:24.763Z,99516.30
2019-05-14T06:51:29.648Z,99517.48
2019-05-14T06:55:34.543Z,99511.53
2019-05-14T06:59:39.442Z,99516.15
2019-05-14T07:03:44.602Z,99507.05
2019-05-14T07:07:49.588Z,99506.63
2019-05-14T07:11:54.475Z,99504.48
2019-05-14T07:15:59.365Z,99520.91
2019-05-14T07:20:08.660Z,99518.28
2019-05-14T07:24:14.172Z,99509.39
2019-05-14T07:28:19.364Z,99508.34
2019-05-14T07:32:24.381Z,99505.48
2019-05-14T07:36:29.563Z,99506.66
2019-05-14T07:40:34.587Z,99506.56
2019-05-14T07:44:39.487Z,99500.90
2019-05-14T07:48:44.381Z,99495.80
2019-05-14T07:52:49.860Z,99486.95
2019-05-14T07:56:54.840Z,99494.70
2019-05-14T08:00:59.735Z,99486.95
2019-05-14T08:05:08.628Z,99491.79
2019-05-14T08:09:13.073Z,99496.48
2019-05-14T08:13:19.111Z,99484.94
2019-05-14T08:17:24.040Z,99484.03
2019-05-14T08:21:29.436Z,99495.66
2019-05-14T08:25:34.341Z,99489.02
2019-05-14T08:29:40.100Z,99478.80
2019-05-14T08:33:45.198Z,99472.09
2019-05-14T08:38:03.450Z,99466.34
2019-05-14T08:42:03.593Z,99476.63
2019-05-14T08:46:03.282Z,99459.41
2019-05-14T08:50:09.126Z,99446.33
2019-05-14T08:54:14.182Z,99449.53
2019-05-14T08:58:20.371Z,99442.86
2019-05-14T09:02:25.459Z,99443.73
2019-05-14T09:06:30.399Z,99452.02
2019-05-14T09:10:35.350Z,99448.31
2019-05-14T09:14:40.230Z,99439.04
2019-05-14T09:18:45.136Z,99433.02
2019-05-14T09:22:50.025Z,99453.52
2019-05-14T09:26:54.922Z,99433.15
2019-05-14T09:30:59.897Z,99432.09
2019-05-14T09:35:06.042Z,99423.51
2019-05-14T09:39:12.169Z,99427.19
2019-05-14T09:43:18.269Z,99427.33
2019-05-14T09:47:24.086Z,99431.77
2019-05-14T09:51:29.002Z,99426.04
2019-05-14T09:55:33.888Z,99430.72
2019-05-14T09:59:38.776Z,99424.14
2019-05-14T10:03:43.669Z,99421.60
2019-05-14T10:07:49.503Z,99411.44
2019-05-14T10:11:54.439Z,99407.41
2019-05-14T10:15:59.340Z,99396.28
2019-05-14T10:20:05.173Z,99398.37
2019-05-14T10:24:10.053Z,99401.77
2019-05-14T10:28:14.954Z,99396.12
2019-05-14T10:32:19.844Z,99393.23
2019-05-14T10:36:24.747Z,99382.92
2019-05-14T10:40:29.691Z,99389.41
2019-05-14T10:44:34.587Z,99391.02
2019-05-14T10:48:39.757Z,99392.60
2019-05-14T10:52:44.666Z,99389.28
2019-05-14T10:56:49.680Z,99386.06
2019-05-14T11:00:54.531Z,99389.66
2019-05-14T11:04:59.448Z,99366.54
2019-05-14T11:09:05.998Z,99376.26
2019-05-14T11:13:10.912Z,99374.07
2019-05-14T11:17:15.804Z,99376.53
2019-05-14T11:21:26.353Z,99375.95
2019-05-14T11:25:28.756Z,99357.66
2019-05-14T11:29:33.772Z,99360.20
2019-05-14T11:33:39.009Z,99345.09
2019-05-14T11:37:44.141Z,99350.33
2019-05-14T11:41:49.378Z,99336.20
2019-05-14T11:45:54.455Z,99342.91
2019-05-14T11:49:59.366Z,99339.59
2019-05-14T11:54:04.339Z,99333.98
2019-05-14T11:58:09.230Z,99314.47
2019-05-14T12:02:14.121Z,99313.23
2019-05-14T12:06:19.014Z,99311.03
2019-05-14T12:10:23.906Z,99317.05
2019-05-14T12:14:28.808Z,99306.74
2019-05-14T12:18:33.703Z,99305.81
2019-05-14T12:22:39.309Z,99290.62
2019-05-14T12:26:45.640Z,99289.41
2019-05-14T12:30:50.539Z,99290.94
2019-05-14T12:34:55.435Z,99283.05
2019-05-14T12:39:01.095Z,99277.99
2019-05-14T12:43:09.548Z,99273.22
2019-05-14T12:47:14.174Z,99264.52
2019-05-14T12:51:19.083Z,99262.37
2019-05-14T12:55:23.984Z,99253.32
2019-05-14T12:59:28.901Z,99263.56
2019-05-14T13:03:33.790Z,99275.56
2019-05-14T13:07:41.551Z,99245.77
2019-05-14T13:11:45.363Z,99245.07
2019-05-14T13:15:50.256Z,99245.34
2019-05-14T13:19:55.149Z,99249.00
2019-05-14T13:24:00.037Z,99242.95
2019-05-14T13:28:04.928Z,99236.55
2019-05-14T13:32:12.311Z,99217.89
2019-05-14T13:36:19.768Z,99221.61
2019-05-14T13:40:23.105Z,99218.38
2019-05-14T13:44:29.167Z,99211.60
2019-05-14T13:48:38.279Z,99204.30
2019-05-14T13:52:58.248Z,99211.36
2019-05-14T13:56:48.383Z,99207.92
2019-05-14T14:00:53.455Z,99198.03
2019-05-14T14:04:58.999Z,99195.14
2019-05-14T14:09:11.952Z,99202.88
2019-05-14T14:13:12.199Z,99202.88
2019-05-14T14:17:18.463Z,99193.86
2019-05-14T14:21:23.582Z,99185.27
2019-05-14T14:25:29.769Z,99188.75
2019-05-14T14:29:34.846Z,99176.84
2019-05-14T14:33:39.764Z,99154.31
2019-05-14T14:37:44.649Z,99173.52
2019-05-14T14:41:49.553Z,99182.42
2019-05-14T14:45:54.448Z,99160.19
2019-05-14T14:50:00.388Z,99154.59
2019-05-14T14:54:11.904Z,99149.08
2019-05-14T14:58:12.138Z,99151.00
2019-05-14T15:02:19.711Z,99157.63
2019-05-14T15:06:23.596Z,99143.38
2019-05-14T15:10:28.628Z,99138.30
2019-05-14T15:14:33.474Z,99130.75
2019-05-14T15:18:38.752Z,99130.83
2019-05-14T15:22:43.839Z,99127.45
2019-05-14T15:26:48.908Z,99131.80
2019-05-14T15:30:53.803Z,99133.77
2019-05-14T15:34:59.603Z,99126.22
2019-05-14T15:39:09.742Z,99127.11
2019-05-14T15:43:14.114Z,99107.27
2019-05-14T15:47:19.080Z,99107.86
2019-05-14T15:51:23.901Z,99113.30
2019-05-14T15:55:28.978Z,99116.59
2019-05-14T15:59:33.867Z,99110.09
2019-05-14T16:03:41.376Z,99108.70
2019-05-14T16:07:45.406Z,99103.97
2019-05-14T16:11:50.297Z,99101.07
2019-05-14T16:15:55.199Z,99093.72
2019-05-14T16:20:00.475Z,99092.58
2019-05-14T16:24:05.352Z,99094.41
2019-05-14T16:28:10.233Z,99085.98
2019-05-14T16:32:15.144Z,99078.70
2019-05-14T16:36:20.052Z,99090.24
2019-05-14T16:40:24.930Z,99080.25
2019-05-14T16:44:30.809Z,99082.35
2019-05-14T16:48:35.692Z,99089.43
2019-05-14T16:52:42.305Z,99094.00
2019-05-14T16:56:48.293Z,99091.63
2019-05-14T17:00:53.362Z,99085.20
2019-05-14T17:04:59.062Z,99086.77
2019-05-14T17:09:05.455Z,99087.09
2019-05-14T17:13:10.367Z,99087.41
2019-05-14T17:17:15.267Z,99080.25
2019-05-14T17:21:20.157Z,99080.41
2019-05-14T17:25:27.004Z,99078.22
2019-05-14T17:29:31.643Z,99081.88
2019-05-14T17:33:39.173Z,99075.65
2019-05-14T17:37:43.127Z,99077.42
2019-05-14T17:41:48.527Z,99076.14
2019-05-14T17:45:53.509Z,99080.36
2019-05-14T17:49:59.092Z,99075.96
2019-05-14T17:54:03.966Z,99078.78
2019-05-14T17:58:13.149Z,99070.67
2019-05-14T18:02:15.480Z,99080.39
2019-05-14T18:06:20.376Z,99075.05
2019-05-14T18:10:25.272Z,99076.78
2019-05-14T18:14:30.155Z,99081.05
2019-05-14T18:18:35.121Z,99083.60
2019-05-14T18:22:42.335Z,99076.06
2019-05-14T18:26:48.108Z,99074.88
2019-05-14T18:30:53.078Z,99075.91
2019-05-14T18:34:58.251Z,99082.61
2019-05-14T18:39:04.121Z,99070.58
2019-05-14T18:43:09.083Z,99083.52
2019-05-14T18:47:16.841Z,99085.41
2019-05-14T18:51:20.570Z,99086.84
2019-05-14T18:55:25.841Z,99083.06
2019-05-14T18:59:31.083Z,99080.05
2019-05-14T19:03:39.300Z,99084.69
2019-05-14T19:07:42.597Z,99081.09
2019-05-14T19:11:48.266Z,99084.75
2019-05-14T19:15:53.261Z,99078.83
2019-05-14T19:19:58.972Z,99074.27
2019-05-14T19:24:04.029Z,99075.92
2019-05-14T19:28:09.015Z,99076.20
2019-05-14T19:32:14.861Z,99087.75
2019-05-14T19:36:19.759Z,99097.06
2019-05-14T19:40:24.658Z,99095.60
2019-05-14T19:44:29.821Z,99098.03
2019-05-14T19:48:34.815Z,99094.39
2019-05-14T19:52:39.712Z,99101.17
2019-05-14T19:56:55.701Z,99098.83
2019-05-14T20:00:51.209Z,99099.09
2019-05-14T20:04:58.660Z,99100.16
2019-05-14T20:09:03.052Z,99096.98
2019-05-14T20:13:08.407Z,99095.88
2019-05-14T20:17:14.270Z,99100.97
2019-05-14T20:21:19.160Z,99091.25
2019-05-14T20:25:24.054Z,99098.39
2019-05-14T20:29:28.927Z,99087.74
2019-05-14T20:33:33.883Z,99083.48
2019-05-14T20:37:39.181Z,99084.86
2019-05-14T20:41:44.146Z,99081.68
2019-05-14T20:45:49.189Z,99081.38
2019-05-14T20:49:53.991Z,99080.93
2019-05-14T20:53:58.873Z,99075.91
2019-05-14T20:58:03.769Z,99081.89
2019-05-14T21:02:08.661Z,99077.38
2019-05-14T21:06:13.552Z,99072.51
2019-05-14T21:10:19.260Z,99069.63
2019-05-14T21:14:25.349Z,99075.03
2019-05-14T21:18:35.034Z,99075.56
2019-05-14T21:22:39.710Z,99068.99
2019-05-14T21:26:43.369Z,99073.73
2019-05-14T21:30:48.647Z,99071.66
2019-05-14T21:34:53.613Z,99069.18
2019-05-14T21:38:58.768Z,99068.88
2019-05-14T21:43:03.661Z,99068.12
2019-05-14T21:47:08.549Z,99067.73
2019-05-14T21:51:13.424Z,99063.94
2019-05-14T21:55:19.834Z,99068.67
2019-05-14T21:59:24.885Z,99060.39
2019-05-14T22:03:29.844Z,99069.10
2019-05-14T22:07:34.732Z,99066.24
2019-05-14T22:11:39.681Z,99062.52
2019-05-14T22:15:44.570Z,99072.05
2019-05-14T22:19:49.461Z,99064.22
2019-05-14T22:23:54.346Z,99063.79
2019-05-14T22:28:11.595Z,99065.09
2019-05-14T22:32:08.193Z,99059.10
2019-05-14T22:36:13.281Z,99063.11
2019-05-14T22:40:18.449Z,99056.63
2019-05-14T22:44:23.276Z,99056.69
2019-05-14T22:48:28.165Z,99052.77
2019-05-14T22:52:33.048Z,99044.14
2019-05-14T22:56:38.911Z,99048.06
2019-05-14T23:00:48.136Z,99045.94
2019-05-14T23:04:50.714Z,99048.52
2019-05-14T23:08:58.004Z,99041.20
2019-05-14T23:13:02.171Z,99048.20
2019-05-14T23:17:08.042Z,99042.13
2019-05-14T23:21:13.222Z,99045.59
2019-05-14T23:25:18.601Z,99040.87
2019-05-14T23:29:23.568Z,99040.44
2019-05-14T23:33:28.908Z,99044.80
2019-05-14T23:37:34.844Z,99034.85
2019-05-14T23:41:39.800Z,99033.11
2019-05-14T23:45:44.682Z,99034.40
2019-05-14T23:49:49.572Z,99027.05
2019-05-14T23:53:54.441Z,99024.03
2019-05-14T23:57:59.332Z,99022.29
